createdAt,value
2022-10-16T00:03:00.124Z,53.23
2022-10-16T00:07:59.381Z,53.29
2022-10-16T00:12:58.509Z,53.13
2022-10-16T00:17:58.934Z,53.35
2022-10-16T00:22:58.016Z,53.59
2022-10-16T00:27:57.053Z,54.15
2022-10-16T00:32:55.919Z,54.76
2022-10-16T00:37:56.148Z,56.40
2022-10-16T00:42:55.123Z,58.24
2022-10-16T00:47:56.340Z,58.07
2022-10-16T00:52:58.213Z,58.27
2022-10-16T00:57:57.669Z,57.58
2022-10-16T01:02:57.938Z,57.64
2022-10-16T01:08:04.790Z,57.10
2022-10-16T01:13:07.875Z,57.62
2022-10-16T01:18:13.580Z,57.49
2022-10-16T01:23:24.090Z,57.82
2022-10-16T01:28:30.424Z,57.58
2022-10-16T01:33:36.434Z,57.21
2022-10-16T01:38:38.780Z,56.78
2022-10-16T01:43:43.809Z,56.32
2022-10-16T01:48:43.471Z,55.80
2022-10-16T01:53:43.963Z,54.95
2022-10-16T01:58:51.436Z,54.20
2022-10-16T02:03:54.961Z,53.93
2022-10-16T02:08:53.675Z,53.80
2022-10-16T02:13:59.106Z,54.59
2022-10-16T02:18:58.105Z,54.28
2022-10-16T02:24:02.612Z,54.51
2022-10-16T02:29:08.101Z,54.63
2022-10-16T02:34:08.893Z,54.56
2022-10-16T02:39:09.256Z,54.92
2022-10-16T02:44:09.389Z,54.88
2022-10-16T02:49:08.130Z,54.83
2022-10-16T02:54:06.908Z,54.96
2022-10-16T02:59:05.957Z,54.84
2022-10-16T03:04:06.777Z,54.69
2022-10-16T03:09:05.705Z,54.61
2022-10-16T03:14:04.553Z,54.59
2022-10-16T03:19:03.624Z,54.57
2022-10-16T03:24:03.844Z,54.39
2022-10-16T03:29:03.808Z,54.31
2022-10-16T03:34:02.646Z,54.31
2022-10-16T03:39:01.455Z,54.20
2022-10-16T03:44:01.666Z,54.30
2022-10-16T03:49:00.427Z,54.40
2022-10-16T03:53:59.233Z,54.31
2022-10-16T03:58:58.492Z,54.28
2022-10-16T04:03:58.640Z,54.33
2022-10-16T04:08:57.429Z,54.69
2022-10-16T04:13:56.232Z,54.24
2022-10-16T04:18:54.989Z,54.47
2022-10-16T04:23:55.109Z,54.74
2022-10-16T04:28:53.900Z,55.12
2022-10-16T04:33:52.788Z,55.62
2022-10-16T04:38:51.615Z,56.04
2022-10-16T04:43:51.937Z,55.66
2022-10-16T04:48:50.750Z,55.42
2022-10-16T04:53:49.585Z,55.44
2022-10-16T04:58:48.452Z,55.42
2022-10-16T05:03:48.673Z,55.30
2022-10-16T05:08:47.766Z,55.37
2022-10-16T05:13:46.697Z,56.88
2022-10-16T05:18:45.497Z,60.01
2022-10-16T05:23:45.917Z,62.47
2022-10-16T05:28:45.382Z,63.71
2022-10-16T05:33:45.161Z,65.35
2022-10-16T05:38:45.575Z,65.43
2022-10-16T05:43:44.342Z,65.63
2022-10-16T05:48:43.188Z,65.71
2022-10-16T05:58:45.395Z,64.55
2022-10-16T06:03:44.839Z,64.70
2022-10-16T06:08:45.083Z,64.53
2022-10-16T06:13:48.655Z,64.22
2022-10-16T06:18:48.324Z,63.63
2022-10-16T06:23:48.053Z,63.97
2022-10-16T06:28:48.596Z,63.58
2022-10-16T06:33:48.094Z,62.49
2022-10-16T06:38:47.052Z,61.63
2022-10-16T06:43:47.455Z,61.09
2022-10-16T06:48:46.180Z,60.84
2022-10-16T06:54:04.111Z,60.56
2022-10-16T06:59:05.654Z,61.18
2022-10-16T07:04:04.605Z,60.54
2022-10-16T07:09:07.554Z,59.82
2022-10-16T07:14:17.099Z,60.11
2022-10-16T07:19:18.004Z,60.18
2022-10-16T07:24:18.589Z,60.03
2022-10-16T07:29:20.895Z,59.75
2022-10-16T07:34:22.642Z,60.33
2022-10-16T07:39:31.725Z,59.88
2022-10-16T07:44:32.109Z,59.42
2022-10-16T07:49:30.909Z,59.37
2022-10-16T07:54:29.716Z,58.09
2022-10-16T07:59:28.949Z,57.57
2022-10-16T08:04:30.608Z,56.90
2022-10-16T08:09:29.646Z,56.96
2022-10-16T08:14:29.579Z,56.56
2022-10-16T08:19:30.139Z,56.09
2022-10-16T08:24:31.906Z,55.23
2022-10-16T08:29:30.772Z,53.95
2022-10-16T08:34:30.978Z,53.26
2022-10-16T08:39:30.511Z,51.40
2022-10-16T08:45:44.683Z,48.57
2022-10-16T08:50:50.656Z,45.62
2022-10-16T08:55:53.200Z,43.13
2022-10-16T09:00:56.509Z,41.40
2022-10-16T09:06:09.772Z,39.24
2022-10-16T09:11:15.739Z,37.65
2022-10-16T09:16:22.109Z,36.66
2022-10-16T09:21:28.787Z,33.86
2022-10-16T09:26:27.715Z,44.84
2022-10-16T09:31:26.628Z,33.12
2022-10-16T09:36:29.721Z,32.23
2022-10-16T09:41:28.773Z,30.89
2022-10-16T09:46:41.378Z,28.57
2022-10-16T09:51:42.014Z,28.88
2022-10-16T09:56:57.073Z,28.72
2022-10-16T10:02:03.794Z,28.30
2022-10-16T10:07:40.733Z,27.10
2022-10-16T10:12:51.777Z,25.58
2022-10-16T10:17:52.910Z,25.52
2022-10-16T10:22:52.950Z,25.98
2022-10-16T10:28:08.847Z,25.95
2022-10-16T10:33:26.511Z,24.37
2022-10-16T10:38:46.349Z,24.91
2022-10-16T10:43:57.842Z,24.34
2022-10-16T10:49:15.407Z,25.13
2022-10-16T10:54:20.235Z,24.32
2022-10-16T10:59:44.661Z,23.86
2022-10-16T11:05:01.455Z,23.76
2022-10-16T11:10:07.373Z,23.23
2022-10-16T11:15:16.958Z,22.46
2022-10-16T11:20:20.315Z,23.65
2022-10-16T11:25:25.091Z,24.48
2022-10-16T11:30:27.632Z,24.61
2022-10-16T11:35:34.833Z,23.84
2022-10-16T11:40:42.182Z,23.81
2022-10-16T11:45:44.817Z,22.67
2022-10-16T11:50:51.123Z,23.21
2022-10-16T11:55:51.610Z,22.99
2022-10-16T12:00:58.210Z,23.02
2022-10-16T12:06:08.908Z,21.42
2022-10-16T12:11:22.422Z,20.59
2022-10-16T12:16:26.356Z,20.60
2022-10-16T12:22:26.241Z,20.71
2022-10-16T12:27:31.852Z,19.33
2022-10-16T12:32:49.564Z,19.27
2022-10-16T12:37:48.793Z,19.56
2022-10-16T12:42:49.064Z,18.61
2022-10-16T12:47:52.493Z,19.25
2022-10-16T12:52:51.508Z,19.59
2022-10-16T12:58:09.943Z,18.85
2022-10-16T13:03:37.743Z,18.64
2022-10-16T13:08:57.776Z,18.50
2022-10-16T13:14:06.349Z,18.35
2022-10-16T13:19:18.331Z,19.71
2022-10-16T13:24:30.743Z,20.72
2022-10-16T13:29:37.610Z,21.08
2022-10-16T13:34:46.792Z,20.29
2022-10-16T13:39:45.538Z,22.12
2022-10-16T13:44:51.098Z,23.40
2022-10-16T13:50:01.946Z,19.26
2022-10-16T13:55:02.513Z,24.27
2022-10-16T14:00:04.637Z,18.62
2022-10-16T14:05:06.129Z,23.47
2022-10-16T14:10:09.984Z,20.78
2022-10-16T14:15:21.519Z,20.47
2022-10-16T14:20:21.446Z,19.14
2022-10-16T14:25:31.625Z,20.10
2022-10-16T14:30:35.790Z,19.76
2022-10-16T14:35:37.148Z,20.54
2022-10-16T14:40:38.159Z,19.87
2022-10-16T14:45:39.656Z,20.15
2022-10-16T14:50:38.474Z,21.49
2022-10-16T14:55:39.218Z,20.50
2022-10-16T15:00:41.194Z,21.40
2022-10-16T15:05:42.217Z,21.94
2022-10-16T15:10:45.027Z,22.66
2022-10-16T15:15:46.956Z,22.66
2022-10-16T15:20:46.087Z,23.52
2022-10-16T15:25:47.105Z,24.02
2022-10-16T15:30:48.209Z,24.85
2022-10-16T15:35:50.014Z,25.41
2022-10-16T15:40:49.738Z,26.02
2022-10-16T15:46:02.663Z,26.60
2022-10-16T15:51:01.893Z,27.63
2022-10-16T15:56:03.921Z,28.53
2022-10-16T16:01:05.383Z,29.53
2022-10-16T16:06:07.063Z,30.02
2022-10-16T16:11:08.578Z,30.75
2022-10-16T16:16:10.426Z,31.16
2022-10-16T16:21:10.179Z,31.95
2022-10-16T16:26:12.051Z,32.23
2022-10-16T16:31:12.293Z,32.96
2022-10-16T16:36:15.538Z,32.71
2022-10-16T16:41:18.246Z,32.93
2022-10-16T16:46:18.137Z,33.47
2022-10-16T16:51:20.688Z,34.30
2022-10-16T16:56:21.906Z,34.27
2022-10-16T17:01:24.760Z,34.72
2022-10-16T17:06:30.659Z,34.94
2022-10-16T17:11:29.910Z,34.97
2022-10-16T17:16:32.366Z,35.62
2022-10-16T17:21:33.072Z,35.43
2022-10-16T17:26:32.269Z,35.73
2022-10-16T17:31:34.096Z,36.04
2022-10-16T17:36:36.916Z,36.08
2022-10-16T17:41:37.278Z,36.49
2022-10-16T17:46:40.959Z,36.62
2022-10-16T17:52:08.722Z,36.82
2022-10-16T17:57:07.869Z,36.55
2022-10-16T18:02:08.678Z,36.84
2022-10-16T18:07:07.921Z,36.64
2022-10-16T18:12:08.699Z,36.81
2022-10-16T18:17:11.608Z,37.14
2022-10-16T18:22:10.784Z,37.41
2022-10-16T18:27:09.806Z,37.67
2022-10-16T18:32:08.594Z,37.63
2022-10-16T18:37:08.883Z,37.60
2022-10-16T18:42:10.788Z,37.66
2022-10-16T18:47:10.435Z,37.81
2022-10-16T18:52:12.644Z,38.17
2022-10-16T18:57:14.609Z,38.09
2022-10-16T19:02:14.051Z,38.40
2022-10-16T19:07:15.810Z,38.66
2022-10-16T19:12:14.733Z,38.42
2022-10-16T19:17:18.596Z,38.37
2022-10-16T19:22:30.630Z,38.22
2022-10-16T19:34:13.376Z,38.61
2022-10-16T19:39:16.155Z,38.54
2022-10-16T19:44:19.889Z,38.65
2022-10-16T19:49:25.840Z,39.09
2022-10-16T19:54:27.481Z,39.13
2022-10-16T19:59:26.284Z,39.09
2022-10-16T20:04:25.195Z,39.25
2022-10-16T20:09:24.124Z,39.08
2022-10-16T20:14:24.463Z,39.33
2022-10-16T20:19:23.469Z,39.73
2022-10-16T20:24:22.717Z,39.73
2022-10-16T20:29:21.705Z,39.69
2022-10-16T20:34:21.984Z,39.66
2022-10-16T20:39:20.870Z,39.79
2022-10-16T20:44:19.835Z,39.91
2022-10-16T20:49:28.785Z,39.61
2022-10-16T20:54:39.010Z,39.66
2022-10-16T20:59:37.964Z,40.09
2022-10-16T21:04:36.872Z,40.85
2022-10-16T21:09:35.817Z,40.87
2022-10-16T21:14:42.307Z,41.75
2022-10-16T21:19:45.427Z,42.72
2022-10-16T21:24:44.331Z,43.20
2022-10-16T21:34:43.267Z,43.85
2022-10-16T21:39:42.274Z,43.95
2022-10-16T21:44:40.977Z,44.29
2022-10-16T21:49:41.190Z,44.83
2022-10-16T21:54:40.372Z,45.03
2022-10-16T21:59:39.162Z,44.79
2022-10-16T22:04:38.011Z,45.01
2022-10-16T22:09:38.245Z,45.45
2022-10-16T22:14:37.317Z,45.97
2022-10-16T22:19:36.102Z,45.96
2022-10-16T22:24:35.012Z,46.10
2022-10-16T22:29:35.221Z,46.60
2022-10-16T22:34:33.921Z,46.44
2022-10-16T22:39:32.772Z,46.34
2022-10-16T22:44:31.695Z,46.13
2022-10-16T22:49:31.872Z,46.44
2022-10-16T22:54:32.365Z,46.34
2022-10-16T22:59:31.229Z,47.12
2022-10-16T23:04:33.112Z,46.80
2022-10-16T23:09:32.062Z,47.25
2022-10-16T23:14:30.858Z,47.10
2022-10-16T23:19:31.208Z,47.24
2022-10-16T23:24:31.824Z,47.48
2022-10-16T23:29:30.771Z,47.66
2022-10-16T23:34:29.617Z,48.11
2022-10-16T23:39:29.873Z,48.34
2022-10-16T23:44:28.636Z,48.07
2022-10-16T23:49:27.410Z,48.28
2022-10-16T23:54:26.186Z,48.15
2022-10-16T23:59:26.389Z,48.59
